Time;durP1;ratioP1;P1;durP2;ratioP2;P2;SDS_P1;SDS_P2;PMS_P1;PMS_P2;Temp;Humidity;BMP_temperature;BMP_pressure;BME280_temperature;BME280_humidity;BME280_pressure;Samples;Min_cycle;Max_cycle;Signal;HPM_P1;HPM_P2
2023/05/01 00:01:22;;;;;;;2.25;0.95;;;11.40;98.80;;;;;;4951869;28;20038;-68
2023/05/01 00:03:49;;;;;;;3.25;0.98;;;11.30;98.90;;;;;;4948611;28;20044;-68
2023/05/01 00:06:15;;;;;;;3.08;1.15;;;11.40;99.00;;;;;;4948531;28;20041;-70
2023/05/01 00:08:41;;;;;;;2.35;0.93;;;11.30;99.00;;;;;;4919948;28;20035;-69
2023/05/01 00:11:10;;;;;;;3.58;0.80;;;11.40;99.10;;;;;;4943708;28;20058;-68
2023/05/01 00:13:36;;;;;;;2.47;0.88;;;11.40;99.10;;;;;;4945949;28;20508;-69
2023/05/01 00:16:07;;;;;;;4.50;0.70;;;11.40;99.10;;;;;;4954677;28;20571;-68
2023/05/01 00:18:34;;;;;;;3.70;0.98;;;11.50;99.20;;;;;;4958698;28;20034;-69
2023/05/01 00:21:00;;;;;;;3.92;1.30;;;11.50;99.20;;;;;;4970687;28;20038;-68
2023/05/01 00:23:26;;;;;;;4.80;1.08;;;11.50;99.20;;;;;;4952904;28;20318;-68
2023/05/01 00:25:53;;;;;;;3.33;1.10;;;11.50;99.20;;;;;;4957492;28;20035;-68
2023/05/01 00:28:19;;;;;;;3.28;0.90;;;11.50;99.20;;;;;;4952589;28;20038;-68
2023/05/01 00:30:45;;;;;;;8.85;1.00;;;11.50;99.20;;;;;;4949446;28;20499;-68
2023/05/01 00:33:12;;;;;;;5.15;1.38;;;11.50;99.20;;;;;;4947450;28;20046;-69
2023/05/01 00:35:39;;;;;;;5.85;1.60;;;11.50;99.10;;;;;;4973083;28;20039;-69
2023/05/01 00:38:06;;;;;;;2.63;0.60;;;11.50;99.10;;;;;;4961687;28;20050;-70
2023/05/01 00:40:40;;;;;;;6.40;1.25;;;11.50;99.10;;;;;;4941715;28;20034;-69
2023/05/01 00:43:06;;;;;;;3.92;0.93;;;11.40;99.00;;;;;;4954105;28;20037;-68
2023/05/01 00:45:33;;;;;;;3.30;0.75;;;11.40;99.10;;;;;;4956588;28;20029;-69
2023/05/01 00:47:59;;;;;;;2.28;0.80;;;11.40;99.10;;;;;;4942228;28;20041;-68
2023/05/01 00:50:26;;;;;;;1.98;0.80;;;11.40;99.10;;;;;;4954052;28;20081;-69
2023/05/01 00:52:52;;;;;;;2.50;0.57;;;11.30;99.00;;;;;;4946073;28;20034;-68
2023/05/01 00:55:19;;;;;;;5.10;1.23;;;11.30;98.90;;;;;;4939975;28;20363;-69
2023/05/01 00:57:46;;;;;;;4.22;0.93;;;11.30;98.90;;;;;;4962536;28;20026;-69
2023/05/01 01:00:12;;;;;;;2.95;0.75;;;11.30;98.80;;;;;;4957731;28;20505;-69
2023/05/01 01:02:39;;;;;;;3.35;0.80;;;11.30;98.80;;;;;;4955671;28;20046;-68
2023/05/01 01:05:06;;;;;;;8.93;1.10;;;11.30;98.70;;;;;;4959281;28;20034;-69
2023/05/01 01:08:19;;;;;;;4.63;0.85;;;11.30;98.60;;;;;;4940009;28;20038;-68
2023/05/01 01:10:55;;;;;;;4.32;1.00;;;11.30;98.60;;;;;;4952008;28;20046;-68
2023/05/01 01:13:39;;;;;;;2.15;0.75;;;11.20;98.50;;;;;;4922047;28;20050;-69
2023/05/01 01:16:30;;;;;;;4.60;1.10;;;11.20;98.40;;;;;;4973211;28;20033;-68
2023/05/01 01:19:18;;;;;;;3.10;0.80;;;11.20;98.40;;;;;;4946765;28;20106;-67
2023/05/01 01:21:51;;;;;;;7.65;1.15;;;11.20;98.30;;;;;;4954563;28;20420;-68
2023/05/01 01:24:44;;;;;;;4.55;1.00;;;11.20;98.30;;;;;;4960233;28;20042;-68
2023/05/01 01:27:23;;;;;;;4.80;1.00;;;11.10;98.30;;;;;;4956005;28;20026;-68
2023/05/01 01:29:56;;;;;;;4.15;0.90;;;11.10;98.30;;;;;;4950103;28;20041;-68
2023/05/01 01:32:53;;;;;;;4.00;0.70;;;11.20;98.20;;;;;;4946800;28;20037;-67
2023/05/01 01:35:25;;;;;;;4.03;0.93;;;11.20;98.20;;;;;;4954868;28;20041;-68
2023/05/01 01:38:00;;;;;;;2.20;1.00;;;11.10;98.20;;;;;;4956508;28;20030;-68
2023/05/01 01:40:52;;;;;;;3.15;0.68;;;11.10;98.10;;;;;;4957471;28;20386;-67
2023/05/01 01:43:20;;;;;;;2.70;0.85;;;11.10;98.10;;;;;;4968217;28;20061;-67
2023/05/01 01:45:51;;;;;;;2.55;0.90;;;11.10;98.10;;;;;;4972915;28;20034;-67
2023/05/01 01:48:28;;;;;;;4.65;1.13;;;11.10;98.10;;;;;;4954411;28;20027;-67
2023/05/01 01:50:58;;;;;;;3.45;0.70;;;11.00;98.20;;;;;;4965359;28;20061;-67
2023/05/01 01:53:27;;;;;;;2.42;0.70;;;11.00;98.20;;;;;;4932800;28;20530;-67
2023/05/01 01:55:55;;;;;;;2.35;0.60;;;11.00;98.20;;;;;;4940067;28;20030;-68
2023/05/01 01:58:25;;;;;;;4.65;0.70;;;11.00;98.20;;;;;;4956173;28;20516;-67
2023/05/01 02:00:54;;;;;;;1.95;0.63;;;10.90;98.30;;;;;;4928307;28;20049;-68
2023/05/01 02:03:21;;;;;;;1.92;0.68;;;10.80;98.40;;;;;;4957264;28;21477;-68
2023/05/01 02:05:50;;;;;;;2.17;0.60;;;10.80;98.50;;;;;;4945025;28;20045;-69
2023/05/01 02:08:18;;;;;;;4.40;0.82;;;10.80;98.60;;;;;;4954507;28;20042;-67
2023/05/01 02:10:46;;;;;;;4.32;0.80;;;10.70;98.60;;;;;;4950539;28;20064;-70
2023/05/01 02:13:16;;;;;;;3.70;0.73;;;10.70;98.60;;;;;;4952973;28;20030;-68
2023/05/01 02:15:44;;;;;;;2.17;0.70;;;10.70;98.60;;;;;;4957773;28;20042;-67
2023/05/01 02:18:12;;;;;;;2.65;0.70;;;10.80;98.60;;;;;;4970456;28;20042;-68
2023/05/01 02:20:41;;;;;;;4.47;0.73;;;10.70;98.60;;;;;;4954942;28;20039;-67
2023/05/01 02:23:08;;;;;;;4.75;1.00;;;10.80;98.70;;;;;;4958942;28;20050;-68
2023/05/01 02:25:38;;;;;;;2.42;0.70;;;10.80;98.70;;;;;;4965331;28;20038;-67
2023/05/01 02:28:14;;;;;;;5.28;0.90;;;10.80;98.70;;;;;;4937852;28;20041;-68
2023/05/01 02:30:41;;;;;;;3.80;1.00;;;10.80;98.70;;;;;;4949138;28;20409;-68
2023/05/01 02:33:07;;;;;;;7.88;1.20;;;10.80;98.70;;;;;;4947531;28;20038;-68
2023/05/01 02:35:42;;;;;;;2.50;0.70;;;10.80;98.80;;;;;;4954845;28;20034;-67
2023/05/01 02:38:16;;;;;;;2.15;0.75;;;10.90;98.90;;;;;;4937894;28;20046;-67
2023/05/01 02:40:56;;;;;;;1.55;0.88;;;10.90;98.90;;;;;;4958622;28;20018;-68
2023/05/01 02:43:25;;;;;;;5.57;0.75;;;10.90;98.90;;;;;;4940682;28;20405;-68
2023/05/01 02:45:53;;;;;;;4.45;1.10;;;10.90;98.90;;;;;;4960081;28;20030;-67
2023/05/01 02:48:24;;;;;;;2.05;0.80;;;10.90;98.90;;;;;;4955449;28;20039;-69
2023/05/01 02:50:52;;;;;;;2.50;0.73;;;11.00;98.90;;;;;;4932458;28;20984;-68
2023/05/01 02:53:19;;;;;;;1.67;0.60;;;11.00;98.90;;;;;;4948024;28;20034;-67
2023/05/01 02:55:52;;;;;;;3.17;0.88;;;11.00;98.90;;;;;;4940270;28;20072;-68
2023/05/01 02:58:19;;;;;;;4.05;0.73;;;11.00;98.90;;;;;;4953705;28;20038;-67
2023/05/01 03:00:48;;;;;;;2.63;0.70;;;11.00;99.00;;;;;;4938514;28;20081;-68
2023/05/01 03:03:15;;;;;;;2.72;0.70;;;11.00;99.00;;;;;;4944585;28;20050;-69
2023/05/01 03:05:42;;;;;;;3.33;0.75;;;11.00;99.00;;;;;;4958179;28;20034;-68
2023/05/01 03:08:09;;;;;;;3.72;0.70;;;11.00;99.00;;;;;;4940349;28;20038;-67
2023/05/01 03:10:38;;;;;;;2.40;0.70;;;11.00;99.00;;;;;;4952194;28;20063;-67
2023/05/01 03:13:04;;;;;;;3.67;0.80;;;10.90;99.00;;;;;;4951902;28;20042;-67
2023/05/01 03:15:30;;;;;;;2.72;0.70;;;10.90;99.00;;;;;;4955540;28;20520;-68
2023/05/01 03:17:56;;;;;;;3.47;0.75;;;10.90;99.10;;;;;;4942166;28;20041;-68
2023/05/01 03:20:23;;;;;;;1.75;0.80;;;10.90;99.10;;;;;;4956147;28;20030;-69
2023/05/01 03:22:50;;;;;;;3.35;0.68;;;10.90;99.20;;;;;;4955971;28;20024;-68
2023/05/01 03:25:16;;;;;;;2.72;0.80;;;10.90;99.20;;;;;;4962581;28;20047;-67
2023/05/01 03:27:42;;;;;;;3.97;1.15;;;10.90;99.20;;;;;;4956449;28;20065;-68
2023/05/01 03:30:10;;;;;;;4.15;0.80;;;10.90;99.20;;;;;;4952543;28;20529;-68
2023/05/01 03:32:40;;;;;;;4.25;1.20;;;10.90;99.30;;;;;;4934083;28;20051;-67
2023/05/01 03:35:13;;;;;;;3.00;1.27;;;10.90;99.30;;;;;;4973343;28;20041;-67
2023/05/01 03:37:39;;;;;;;2.53;0.82;;;10.90;99.30;;;;;;4937034;28;20045;-67
2023/05/01 03:40:06;;;;;;;2.70;0.70;;;10.90;99.30;;;;;;4940507;28;20038;-68
2023/05/01 03:42:51;;;;;;;4.40;0.75;;;10.80;99.30;;;;;;4955291;28;20019;-68
2023/05/01 03:45:22;;;;;;;3.33;0.85;;;10.90;99.40;;;;;;4945454;28;20051;-68
2023/05/01 03:47:49;;;;;;;2.92;0.82;;;10.80;99.40;;;;;;4953881;28;20031;-68
2023/05/01 03:50:16;;;;;;;5.15;1.02;;;10.90;99.40;;;;;;4951882;28;20041;-67
2023/05/01 03:52:43;;;;;;;2.75;0.60;;;10.80;99.40;;;;;;4943110;28;20041;-67
2023/05/01 03:55:11;;;;;;;1.95;0.80;;;10.80;99.40;;;;;;4950256;28;20477;-67
2023/05/01 03:57:41;;;;;;;4.63;0.77;;;10.80;99.50;;;;;;4954895;28;20382;-67
2023/05/01 04:00:10;;;;;;;2.67;0.70;;;10.80;99.60;;;;;;4952752;28;20042;-68
2023/05/01 04:02:43;;;;;;;4.00;1.00;;;10.90;99.70;;;;;;4957532;28;20318;-69
2023/05/01 04:05:13;;;;;;;2.85;0.70;;;10.90;99.70;;;;;;4931927;28;20046;-69
2023/05/01 04:07:44;;;;;;;4.47;0.80;;;10.80;99.70;;;;;;4974354;28;20039;-68
2023/05/01 04:10:10;;;;;;;3.92;1.00;;;10.80;99.70;;;;;;4938313;28;20058;-68
2023/05/01 04:12:42;;;;;;;3.45;0.88;;;10.80;99.80;;;;;;4948656;28;20464;-68
2023/05/01 04:15:09;;;;;;;3.25;0.80;;;10.80;99.90;;;;;;4955167;28;20038;-68
2023/05/01 04:17:36;;;;;;;2.15;0.85;;;10.80;99.90;;;;;;4957564;28;20034;-68
2023/05/01 04:20:06;;;;;;;3.08;1.10;;;10.80;99.90;;;;;;4938363;28;20494;-68
2023/05/01 04:22:33;;;;;;;3.13;0.90;;;10.80;99.90;;;;;;4970238;28;20039;-68
2023/05/01 04:24:59;;;;;;;3.20;0.80;;;10.90;99.90;;;;;;4961313;28;20057;-68
2023/05/01 04:27:26;;;;;;;1.48;0.73;;;10.80;99.90;;;;;;4975377;28;20573;-68
2023/05/01 04:29:52;;;;;;;3.47;1.10;;;10.90;99.90;;;;;;4969299;28;20049;-67
2023/05/01 04:32:18;;;;;;;3.95;1.23;;;10.80;99.90;;;;;;4948547;28;20053;-67
2023/05/01 04:34:45;;;;;;;3.05;1.10;;;10.90;99.90;;;;;;4954260;28;20040;-68
2023/05/01 04:37:11;;;;;;;2.95;0.80;;;10.90;99.90;;;;;;4936727;28;20042;-68
2023/05/01 04:39:38;;;;;;;3.28;1.20;;;10.90;99.90;;;;;;4951882;28;20697;-68
2023/05/01 04:42:04;;;;;;;4.40;1.13;;;10.90;99.90;;;;;;4955187;28;21335;-68
2023/05/01 04:44:33;;;;;;;1.80;1.00;;;10.90;99.90;;;;;;4972708;28;20064;-69
2023/05/01 04:47:03;;;;;;;2.58;1.00;;;10.90;99.90;;;;;;4959222;28;20039;-69
2023/05/01 04:49:29;;;;;;;3.13;0.82;;;11.00;99.90;;;;;;4968085;28;20065;-69
2023/05/01 04:51:56;;;;;;;4.72;0.80;;;11.00;99.90;;;;;;4928562;28;21448;-69
2023/05/01 04:54:26;;;;;;;2.63;0.90;;;11.00;99.90;;;;;;4933503;28;20038;-69
2023/05/01 04:56:53;;;;;;;4.10;0.80;;;11.00;99.90;;;;;;4936621;28;21255;-69
2023/05/01 04:59:19;;;;;;;3.33;0.93;;;11.00;99.90;;;;;;4954596;28;20525;-71
2023/05/01 05:01:46;;;;;;;2.78;1.00;;;11.10;99.90;;;;;;4948180;28;20034;-69
2023/05/01 05:04:12;;;;;;;5.38;1.83;;;11.10;99.90;;;;;;4958139;28;20081;-68
2023/05/01 05:06:39;;;;;;;3.80;1.30;;;11.10;99.90;;;;;;4975027;28;20041;-68
2023/05/01 05:09:11;;;;;;;3.53;1.07;;;11.10;99.90;;;;;;4939604;28;21162;-67
2023/05/01 05:11:37;;;;;;;4.03;1.70;;;11.10;99.90;;;;;;4948924;28;20367;-69
2023/05/01 05:14:07;;;;;;;2.58;0.82;;;11.20;99.90;;;;;;4951434;28;20528;-68
2023/05/01 05:16:33;;;;;;;4.53;1.20;;;11.10;99.90;;;;;;4959588;28;20038;-68
2023/05/01 05:19:00;;;;;;;3.13;1.05;;;11.20;99.90;;;;;;4957148;28;20053;-68
2023/05/01 05:21:30;;;;;;;5.18;1.48;;;11.30;99.90;;;;;;4970593;28;20049;-68
2023/05/01 05:24:00;;;;;;;2.90;0.93;;;11.30;99.90;;;;;;4957192;28;20038;-68
2023/05/01 05:26:28;;;;;;;3.45;0.95;;;11.30;99.90;;;;;;4961960;28;20038;-68
2023/05/01 05:28:58;;;;;;;3.92;1.83;;;11.40;99.90;;;;;;4957942;28;20691;-68
2023/05/01 05:31:24;;;;;;;2.72;0.80;;;11.40;99.90;;;;;;4949235;28;20134;-68
2023/05/01 05:33:50;;;;;;;3.08;0.80;;;11.40;99.90;;;;;;4932388;28;20046;-68
2023/05/01 05:36:17;;;;;;;6.03;1.42;;;11.40;99.90;;;;;;4954074;28;20030;-68
2023/05/01 05:38:44;;;;;;;3.38;1.27;;;11.50;99.90;;;;;;4955962;28;20485;-68
2023/05/01 05:41:14;;;;;;;4.20;1.23;;;11.50;99.90;;;;;;4969127;28;20041;-68
2023/05/01 05:43:41;;;;;;;4.15;1.67;;;11.60;99.90;;;;;;4960966;28;20455;-68
2023/05/01 05:46:08;;;;;;;3.50;1.27;;;11.60;99.90;;;;;;4961085;28;20072;-67
2023/05/01 05:48:36;;;;;;;2.38;0.95;;;11.60;99.90;;;;;;4941516;28;23380;-71
2023/05/01 05:51:03;;;;;;;2.65;1.00;;;11.70;99.90;;;;;;4947334;28;20038;-68
2023/05/01 05:53:29;;;;;;;5.43;1.63;;;11.80;99.90;;;;;;4950464;28;20026;-69
2023/05/01 05:55:56;;;;;;;5.15;2.58;;;11.80;99.90;;;;;;4938263;28;20037;-67
2023/05/01 05:58:23;;;;;;;5.15;2.42;;;11.90;99.90;;;;;;4972322;28;20041;-70
2023/05/01 06:00:50;;;;;;;4.80;2.00;;;11.90;99.90;;;;;;4949566;28;20034;-68
2023/05/01 06:03:18;;;;;;;4.53;2.03;;;12.00;99.90;;;;;;4938546;28;20038;-68
2023/05/01 06:05:44;;;;;;;3.25;1.15;;;12.00;99.90;;;;;;4958444;28;20524;-68
2023/05/01 06:08:13;;;;;;;3.13;1.60;;;12.00;99.80;;;;;;4954008;28;20786;-69
2023/05/01 06:10:42;;;;;;;6.07;1.70;;;12.00;99.80;;;;;;4948215;28;21549;-68
2023/05/01 06:13:09;;;;;;;4.78;1.45;;;12.10;99.70;;;;;;4946608;28;20482;-68
2023/05/01 06:15:39;;;;;;;5.05;2.00;;;12.10;99.70;;;;;;4970721;28;20493;-68
2023/05/01 06:18:06;;;;;;;3.25;1.50;;;12.20;99.60;;;;;;4952971;28;20498;-68
2023/05/01 06:20:32;;;;;;;3.83;1.50;;;12.20;99.50;;;;;;4951125;28;21036;-68
2023/05/01 06:22:59;;;;;;;5.93;3.15;;;12.30;99.50;;;;;;4957834;28;20543;-68
2023/05/01 06:25:38;;;;;;;4.20;1.85;;;12.30;99.50;;;;;;4979744;28;20485;-69
2023/05/01 06:28:05;;;;;;;4.18;1.27;;;12.40;99.40;;;;;;4955975;28;20084;-69
2023/05/01 06:30:33;;;;;;;3.92;1.50;;;12.40;99.40;;;;;;4950144;28;20082;-70
2023/05/01 06:33:01;;;;;;;5.68;2.00;;;12.50;99.30;;;;;;4966208;28;20474;-69
2023/05/01 06:35:27;;;;;;;3.50;1.35;;;12.40;99.20;;;;;;4954312;28;20065;-69
2023/05/01 06:37:54;;;;;;;4.43;1.60;;;12.40;99.30;;;;;;4951650;28;20045;-68
2023/05/01 06:40:21;;;;;;;3.17;1.38;;;12.40;99.30;;;;;;4934802;28;20298;-68
2023/05/01 06:42:47;;;;;;;4.13;1.30;;;12.40;99.30;;;;;;4939036;28;20042;-68
2023/05/01 06:45:14;;;;;;;3.70;1.50;;;12.40;99.40;;;;;;4958278;28;20069;-68
2023/05/01 06:47:40;;;;;;;5.40;1.23;;;12.40;99.40;;;;;;4957569;28;20042;-69
2023/05/01 06:50:09;;;;;;;4.38;1.55;;;12.40;99.40;;;;;;4933106;28;20498;-68
2023/05/01 06:52:35;;;;;;;3.33;1.00;;;12.50;99.50;;;;;;4950641;28;20572;-69
2023/05/01 06:55:02;;;;;;;2.20;0.80;;;12.50;99.50;;;;;;4954906;28;20030;-70
2023/05/01 06:57:29;;;;;;;4.00;1.38;;;12.60;99.50;;;;;;4971926;28;20030;-70
2023/05/01 06:59:55;;;;;;;3.45;0.95;;;12.60;99.50;;;;;;4936098;28;20042;-68
2023/05/01 07:02:21;;;;;;;4.00;1.30;;;12.70;99.60;;;;;;4951402;28;20042;-69
2023/05/01 07:04:48;;;;;;;2.80;1.17;;;12.70;99.60;;;;;;4960489;28;20046;-69
2023/05/01 07:07:14;;;;;;;2.53;0.88;;;12.80;99.60;;;;;;4958433;28;20113;-69
2023/05/01 07:09:40;;;;;;;4.20;1.42;;;12.80;99.60;;;;;;4950230;28;20046;-68
2023/05/01 07:12:07;;;;;;;5.05;1.00;;;12.80;99.60;;;;;;4931882;28;20031;-68
2023/05/01 07:14:34;;;;;;;3.47;1.52;;;12.90;99.60;;;;;;4954116;28;20053;-69
2023/05/01 07:17:01;;;;;;;5.60;1.70;;;12.90;99.60;;;;;;4954697;28;20038;-68
2023/05/01 07:19:28;;;;;;;6.13;1.45;;;12.90;99.50;;;;;;4953749;28;20046;-68
2023/05/01 07:21:54;;;;;;;5.05;1.58;;;13.00;99.50;;;;;;4950141;28;20049;-69
2023/05/01 07:24:20;;;;;;;4.65;1.70;;;13.00;99.50;;;;;;4957761;28;20041;-69
2023/05/01 07:26:46;;;;;;;3.47;1.50;;;13.10;99.50;;;;;;4960278;28;20049;-68
2023/05/01 07:29:15;;;;;;;3.85;1.63;;;13.20;99.40;;;;;;4956064;28;20027;-69
2023/05/01 07:31:42;;;;;;;4.00;1.50;;;13.30;99.50;;;;;;4962923;28;20034;-69
2023/05/01 07:34:08;;;;;;;3.97;1.30;;;13.40;99.60;;;;;;4949530;28;20042;-69
2023/05/01 07:36:34;;;;;;;3.40;1.30;;;13.50;99.50;;;;;;4954362;28;20038;-69
2023/05/01 07:39:00;;;;;;;2.38;1.35;;;13.60;99.40;;;;;;4956406;28;20035;-70
2023/05/01 07:41:27;;;;;;;6.35;1.98;;;13.70;99.30;;;;;;4948854;28;20524;-69
2023/05/01 07:43:53;;;;;;;5.90;1.80;;;13.80;99.30;;;;;;4955595;28;20126;-69
2023/05/01 07:46:19;;;;;;;3.72;2.05;;;13.90;99.20;;;;;;4944432;28;20061;-69
2023/05/01 07:48:45;;;;;;;3.35;1.92;;;14.00;99.10;;;;;;4927835;28;20041;-70
2023/05/01 07:51:12;;;;;;;5.28;2.25;;;14.10;99.00;;;;;;4948720;28;20061;-69
2023/05/01 07:53:41;;;;;;;3.70;1.77;;;14.20;99.00;;;;;;4964937;28;20049;-68
2023/05/01 07:56:08;;;;;;;4.45;1.70;;;14.40;98.90;;;;;;4953058;28;20470;-69
2023/05/01 07:58:35;;;;;;;5.05;2.38;;;14.60;98.80;;;;;;4954684;28;20042;-68
2023/05/01 08:01:03;;;;;;;4.80;2.05;;;14.80;98.60;;;;;;4966205;28;20030;-70
2023/05/01 08:03:30;;;;;;;3.50;2.00;;;14.90;98.40;;;;;;4950300;28;20035;-69
2023/05/01 08:05:56;;;;;;;4.22;2.10;;;15.10;98.10;;;;;;4961024;28;20041;-68
2023/05/01 08:08:22;;;;;;;3.40;2.72;;;15.10;97.90;;;;;;4961450;28;20136;-69
2023/05/01 08:10:50;;;;;;;2.78;1.50;;;15.20;97.90;;;;;;4949838;28;20555;-69
2023/05/01 08:13:17;;;;;;;4.10;2.40;;;15.30;98.00;;;;;;4946189;28;20038;-69
2023/05/01 08:15:46;;;;;;;5.22;2.00;;;15.50;97.80;;;;;;4955386;28;20067;-69
2023/05/01 08:18:18;;;;;;;4.72;2.45;;;15.60;97.60;;;;;;4956342;28;20035;-70
2023/05/01 08:20:48;;;;;;;4.85;2.47;;;15.70;97.50;;;;;;4947794;28;20671;-68
2023/05/01 08:23:17;;;;;;;4.35;1.77;;;15.80;97.30;;;;;;4947356;28;20381;-69
2023/05/01 08:25:49;;;;;;;3.53;1.48;;;16.00;97.30;;;;;;4960645;28;20049;-69
2023/05/01 08:28:19;;;;;;;3.63;1.70;;;16.10;97.20;;;;;;4960499;28;20022;-69
2023/05/01 08:30:45;;;;;;;4.38;2.17;;;16.20;97.10;;;;;;4950871;28;20042;-69
2023/05/01 08:33:11;;;;;;;4.60;2.42;;;16.40;97.00;;;;;;4930622;28;20045;-69
2023/05/01 08:35:38;;;;;;;4.88;2.10;;;16.60;96.80;;;;;;4970520;28;20042;-69
2023/05/01 08:38:04;;;;;;;3.47;1.67;;;16.70;96.50;;;;;;4952656;28;20130;-69
2023/05/01 08:40:34;;;;;;;4.60;1.98;;;16.80;96.50;;;;;;4964616;28;20034;-69
2023/05/01 08:43:01;;;;;;;3.78;1.98;;;17.00;96.40;;;;;;4946953;28;20465;-68
2023/05/01 08:45:31;;;;;;;3.60;2.00;;;17.10;96.00;;;;;;4962195;28;20494;-70
2023/05/01 08:48:00;;;;;;;4.18;2.08;;;17.20;96.10;;;;;;4966381;28;20034;-68
2023/05/01 08:50:26;;;;;;;5.05;2.63;;;17.40;95.80;;;;;;4955683;28;20034;-70
2023/05/01 08:52:57;;;;;;;3.33;1.77;;;17.50;95.60;;;;;;4950348;28;20034;-70
2023/05/01 08:55:26;;;;;;;3.92;1.67;;;17.70;95.60;;;;;;4959077;28;20042;-69
2023/05/01 08:57:54;;;;;;;2.72;1.50;;;17.90;95.50;;;;;;4958145;28;20393;-69
2023/05/01 09:00:21;;;;;;;5.70;1.90;;;18.10;95.20;;;;;;4953307;28;20030;-69
2023/05/01 09:02:48;;;;;;;5.63;2.38;;;18.20;94.70;;;;;;4952040;28;20070;-70
2023/05/01 09:05:16;;;;;;;4.20;1.73;;;18.30;93.90;;;;;;4962689;28;20038;-69
2023/05/01 09:07:46;;;;;;;4.45;2.35;;;18.40;93.70;;;;;;4964421;28;20048;-69
2023/05/01 09:10:16;;;;;;;3.53;2.00;;;18.50;93.30;;;;;;4960761;28;20054;-71
2023/05/01 09:12:47;;;;;;;4.47;1.83;;;18.60;93.40;;;;;;4951433;28;20046;-70
2023/05/01 09:15:14;;;;;;;2.72;1.60;;;18.70;93.30;;;;;;4959597;28;20049;-70
2023/05/01 09:17:43;;;;;;;4.97;2.78;;;18.80;93.20;;;;;;4959181;28;20063;-69
2023/05/01 09:20:10;;;;;;;2.22;0.93;;;19.00;92.70;;;;;;4956049;28;20406;-70
2023/05/01 09:22:36;;;;;;;3.38;1.20;;;19.00;92.60;;;;;;4948647;28;20043;-69
2023/05/01 09:25:03;;;;;;;2.92;1.70;;;19.00;92.50;;;;;;4959197;28;20042;-70
2023/05/01 09:27:36;;;;;;;3.97;1.85;;;19.10;92.20;;;;;;4961456;28;20030;-69
2023/05/01 09:30:05;;;;;;;2.80;1.38;;;19.20;91.90;;;;;;4960387;28;20557;-69
2023/05/01 09:32:32;;;;;;;4.45;1.58;;;19.40;91.60;;;;;;4951435;28;20045;-68
2023/05/01 09:35:12;;;;;;;5.30;2.65;;;19.60;91.50;;;;;;4955978;28;20058;-69
2023/05/01 09:37:40;;;;;;;3.05;1.75;;;19.80;90.80;;;;;;4957438;28;20056;-70
2023/05/01 09:40:10;;;;;;;5.03;1.60;;;19.90;90.70;;;;;;4954553;28;20503;-70
2023/05/01 09:42:51;;;;;;;4.63;1.85;;;20.10;90.00;;;;;;4948777;28;20408;-70
2023/05/01 09:45:18;;;;;;;2.50;1.15;;;20.20;89.20;;;;;;4973491;28;20045;-69
2023/05/01 09:47:45;;;;;;;3.90;1.85;;;20.40;89.60;;;;;;4964264;28;20030;-69
2023/05/01 09:50:32;;;;;;;3.40;0.98;;;20.60;89.30;;;;;;4958732;28;20536;-69
2023/05/01 09:53:03;;;;;;;2.95;1.00;;;21.00;89.40;;;;;;4954571;28;20509;-70
2023/05/01 09:55:30;;;;;;;4.47;1.35;;;21.40;89.20;;;;;;4957156;28;20053;-69
2023/05/01 09:57:57;;;;;;;7.40;1.80;;;21.80;88.80;;;;;;4938792;28;20378;-70
2023/05/01 10:00:24;;;;;;;3.83;1.85;;;22.00;87.30;;;;;;4950893;28;20034;-69
2023/05/01 10:02:51;;;;;;;3.72;1.08;;;22.20;86.40;;;;;;4948380;28;20405;-69
2023/05/01 10:05:18;;;;;;;4.18;1.48;;;22.20;86.20;;;;;;4958465;28;20041;-71
2023/05/01 10:08:04;;;;;;;4.70;1.98;;;22.30;86.40;;;;;;4963808;28;20068;-70
2023/05/01 10:10:30;;;;;;;3.08;1.48;;;22.30;83.90;;;;;;4960331;28;20055;-69
2023/05/01 10:13:13;;;;;;;4.15;1.85;;;22.30;84.20;;;;;;4942216;28;20045;-70
2023/05/01 10:15:39;;;;;;;3.40;1.88;;;22.60;83.70;;;;;;4958380;28;20038;-70
2023/05/01 10:18:09;;;;;;;4.38;1.25;;;22.60;83.10;;;;;;4957527;28;20445;-70
2023/05/01 10:20:35;;;;;;;3.13;1.60;;;22.80;81.60;;;;;;4951399;28;21282;-70
2023/05/01 10:23:04;;;;;;;4.13;1.00;;;22.90;80.20;;;;;;4949555;28;21222;-70
2023/05/01 10:25:31;;;;;;;3.28;1.30;;;23.00;80.70;;;;;;4954917;28;20042;-69
2023/05/01 10:27:58;;;;;;;2.75;1.55;;;23.10;80.00;;;;;;4961867;28;20075;-70
2023/05/01 10:30:28;;;;;;;3.75;2.20;;;23.20;79.80;;;;;;4957952;28;20023;-70
2023/05/01 10:32:55;;;;;;;3.92;1.48;;;23.40;80.10;;;;;;4956448;28;20030;-69
2023/05/01 10:35:26;;;;;;;4.72;2.25;;;23.70;80.00;;;;;;4956818;28;20485;-68
2023/05/01 10:38:02;;;;;;;2.50;1.48;;;23.90;79.60;;;;;;4940349;28;20047;-70
2023/05/01 10:40:48;;;;;;;3.38;1.73;;;24.10;78.80;;;;;;4953213;28;20042;-72
2023/05/01 10:43:17;;;;;;;3.30;1.65;;;24.40;78.50;;;;;;4950494;28;20348;-71
2023/05/01 10:45:45;;;;;;;4.22;1.27;;;24.70;77.60;;;;;;4941073;28;20038;-69
2023/05/01 10:48:12;;;;;;;3.97;1.45;;;24.90;75.90;;;;;;4963431;28;20485;-67
2023/05/01 10:51:13;;;;;;;2.92;1.30;;;25.20;76.00;;;;;;4957846;28;20938;-68
2023/05/01 10:53:40;;;;;;;4.18;1.60;;;25.60;75.20;;;;;;4939293;28;20038;-68
2023/05/01 10:56:27;;;;;;;4.55;1.23;;;25.70;74.70;;;;;;4957676;28;20041;-69
2023/05/01 10:58:55;;;;;;;4.18;1.13;;;25.90;74.30;;;;;;4958301;28;21105;-68
2023/05/01 11:01:28;;;;;;;4.47;1.30;;;26.10;73.80;;;;;;4951827;28;20034;-70
2023/05/01 11:03:56;;;;;;;4.85;1.30;;;26.60;73.00;;;;;;4951290;28;20517;-69
2023/05/01 11:06:25;;;;;;;5.30;1.45;;;26.90;70.50;;;;;;4957464;28;20392;-70
2023/05/01 11:08:52;;;;;;;3.33;1.52;;;27.20;70.40;;;;;;4961716;28;20104;-69
2023/05/01 11:11:18;;;;;;;2.58;1.65;;;27.50;70.60;;;;;;4956251;28;20050;-69
2023/05/01 11:13:57;;;;;;;3.78;2.20;;;27.70;68.20;;;;;;4955296;28;20034;-69
2023/05/01 11:16:45;;;;;;;2.35;0.70;;;27.60;66.80;;;;;;4957509;28;20030;-69
2023/05/01 11:19:37;;;;;;;2.13;0.50;;;27.30;64.50;;;;;;4954711;28;20034;-69
2023/05/01 11:22:12;;;;;;;1.23;0.38;;;27.10;64.10;;;;;;4934587;28;20054;-69
2023/05/01 11:24:38;;;;;;;2.45;0.50;;;27.30;63.00;;;;;;4956109;28;20045;-69
2023/05/01 11:27:06;;;;;;;5.00;0.60;;;27.60;61.60;;;;;;4954283;28;20051;-69
2023/05/01 11:29:33;;;;;;;2.72;0.70;;;27.90;59.10;;;;;;4958996;28;20045;-69
2023/05/01 11:32:00;;;;;;;3.35;0.60;;;27.70;58.30;;;;;;4953672;28;20401;-70
2023/05/01 11:34:27;;;;;;;2.00;0.60;;;27.30;58.70;;;;;;4954321;28;20377;-71
2023/05/01 11:36:53;;;;;;;4.07;1.55;;;27.20;59.10;;;;;;4971725;28;20038;-70
2023/05/01 11:39:20;;;;;;;2.67;1.25;;;27.30;59.00;;;;;;4972020;28;20524;-70
2023/05/01 11:41:47;;;;;;;1.90;0.73;;;26.90;58.60;;;;;;4947743;28;20038;-69
2023/05/01 11:44:17;;;;;;;3.17;1.05;;;26.30;59.40;;;;;;4949636;28;20042;-69
2023/05/01 11:46:46;;;;;;;4.30;1.55;;;25.90;60.00;;;;;;4955795;28;20042;-69
2023/05/01 11:49:13;;;;;;;3.30;1.13;;;25.60;60.20;;;;;;4974731;28;20064;-71
2023/05/01 11:51:39;;;;;;;3.45;0.90;;;25.30;60.70;;;;;;4952387;28;20042;-70
2023/05/01 11:54:08;;;;;;;2.97;0.90;;;25.00;61.10;;;;;;4957307;28;20528;-70
2023/05/01 11:56:36;;;;;;;4.18;0.88;;;24.70;61.20;;;;;;4954808;28;20928;-69
2023/05/01 11:59:17;;;;;;;3.15;1.17;;;24.50;61.30;;;;;;4955098;28;20125;-69
2023/05/01 12:01:45;;;;;;;8.32;3.45;;;24.30;61.30;;;;;;4964898;28;20050;-69
2023/05/01 12:04:21;;;;;;;8.50;6.85;;;24.20;61.80;;;;;;4947804;28;20042;-69
2023/05/01 12:06:47;;;;;;;3.92;1.45;;;24.40;62.00;;;;;;4953712;28;20042;-69
2023/05/01 12:09:23;;;;;;;2.60;0.80;;;24.50;61.30;;;;;;4956505;28;20038;-70
2023/05/01 12:11:51;;;;;;;2.15;0.70;;;24.30;61.20;;;;;;4937089;28;20388;-70
2023/05/01 12:14:18;;;;;;;4.05;2.28;;;24.00;61.60;;;;;;4955430;28;20395;-69
2023/05/01 12:16:45;;;;;;;2.75;0.85;;;23.70;62.30;;;;;;4953624;28;20038;-71
2023/05/01 12:19:13;;;;;;;3.53;0.70;;;23.40;62.70;;;;;;4952733;28;21088;-69
2023/05/01 12:21:40;;;;;;;1.70;0.70;;;23.10;63.20;;;;;;4945300;28;20049;-70
2023/05/01 12:24:08;;;;;;;2.30;0.77;;;22.80;63.80;;;;;;4948466;28;20038;-68
2023/05/01 12:26:35;;;;;;;3.00;0.80;;;22.60;63.90;;;;;;4954751;28;20038;-70
2023/05/01 12:29:05;;;;;;;1.55;0.70;;;22.30;64.00;;;;;;4953819;28;20033;-69
2023/05/01 12:31:32;;;;;;;1.85;0.50;;;22.00;64.20;;;;;;4953253;28;20135;-70
2023/05/01 12:34:02;;;;;;;5.72;0.60;;;21.90;64.50;;;;;;4944214;28;20426;-69
2023/05/01 12:36:33;;;;;;;2.17;0.60;;;21.80;64.70;;;;;;4955525;28;20512;-68
2023/05/01 12:39:05;;;;;;;2.15;0.65;;;21.80;64.50;;;;;;4953552;28;20030;-68
2023/05/01 12:41:39;;;;;;;2.40;0.40;;;21.80;64.60;;;;;;4947137;28;20054;-69
2023/05/01 12:44:21;;;;;;;1.10;0.50;;;21.80;64.70;;;;;;4950025;28;20397;-69
2023/05/01 12:47:06;;;;;;;1.52;0.40;;;22.00;64.60;;;;;;4967585;28;20841;-69
2023/05/01 12:49:35;;;;;;;2.05;0.50;;;22.20;64.40;;;;;;4953636;28;20097;-69
2023/05/01 12:52:02;;;;;;;1.67;0.40;;;22.60;63.90;;;;;;4955739;28;21406;-69
2023/05/01 12:54:36;;;;;;;1.83;0.60;;;23.00;63.20;;;;;;4956671;28;20041;-69
2023/05/01 12:57:13;;;;;;;1.45;0.50;;;23.20;62.30;;;;;;4937178;28;20038;-69
2023/05/01 12:59:42;;;;;;;2.05;0.50;;;23.30;62.00;;;;;;4952206;28;20035;-70